createdAt,value
2023-06-09T00:01:32.018Z,101053.75
2023-06-09T00:03:58.976Z,101054.91
2023-06-09T00:06:25.547Z,101049.34
2023-06-09T00:08:52.858Z,101045.38
2023-06-09T00:11:19.953Z,101044.22
2023-06-09T00:13:46.812Z,101050.91
2023-06-09T00:16:13.308Z,101043.78
2023-06-09T00:18:41.347Z,101038.25
2023-06-09T00:21:07.929Z,101040.59
2023-06-09T00:23:35.183Z,101037.81
2023-06-09T00:26:01.807Z,101040.19
2023-06-09T00:28:28.356Z,101044.56
2023-06-09T00:30:54.885Z,101040.97
2023-06-09T00:33:21.440Z,101042.19
2023-06-09T00:35:50.270Z,101038.59
2023-06-09T00:38:16.769Z,101040.53
2023-06-09T00:40:43.263Z,101033.38
2023-06-09T00:43:09.785Z,101035.34
2023-06-09T00:45:36.317Z,101038.06
2023-06-09T00:48:02.996Z,101037.69
2023-06-09T00:50:30.274Z,101033.72
2023-06-09T00:52:57.401Z,101028.16
2023-06-09T00:55:26.232Z,101030.53
2023-06-09T00:57:56.824Z,101034.84
2023-06-09T01:00:28.480Z,101035.59
2023-06-09T01:03:02.003Z,101036.75
2023-06-09T01:05:40.042Z,101036.72
2023-06-09T01:08:26.800Z,101028.81
2023-06-09T01:11:06.126Z,101040.66
2023-06-09T01:14:08.367Z,101048.66
2023-06-09T01:16:56.108Z,101067.69
2023-06-09T01:19:33.950Z,101069.34
2023-06-09T01:22:09.924Z,101063.47
2023-06-09T01:24:54.979Z,101057.91
2023-06-09T01:27:23.146Z,101069.03
2023-06-09T01:29:52.698Z,101058.75
2023-06-09T01:32:20.601Z,101059.19
2023-06-09T01:34:48.580Z,101060.41
2023-06-09T01:37:15.651Z,101061.63
2023-06-09T01:39:42.580Z,101056.06
2023-06-09T01:42:09.234Z,101060.88
2023-06-09T01:44:35.841Z,101054.88
2023-06-09T01:47:03.158Z,101055.25
2023-06-09T01:49:41.663Z,101052.00
2023-06-09T01:52:18.836Z,101044.06
2023-06-09T01:54:55.519Z,101043.22
2023-06-09T01:57:39.295Z,101041.56
2023-06-09T02:00:08.263Z,101035.97
2023-06-09T02:02:37.697Z,101034.81
2023-06-09T02:05:08.055Z,101037.19
2023-06-09T02:07:35.750Z,101035.22
2023-06-09T02:10:03.905Z,101039.16
2023-06-09T02:12:34.596Z,101039.94
2023-06-09T02:15:01.693Z,101039.16
2023-06-09T02:17:29.060Z,101039.19
2023-06-09T02:19:56.140Z,101039.56
2023-06-09T02:22:23.085Z,101039.22
2023-06-09T02:24:49.562Z,101038.47
2023-06-09T02:27:16.146Z,101036.06
2023-06-09T02:29:42.662Z,101043.22
2023-06-09T02:32:09.477Z,101042.81
2023-06-09T02:34:36.183Z,101040.06
2023-06-09T02:37:03.427Z,101042.44
2023-06-09T02:39:29.951Z,101038.88
2023-06-09T02:41:56.490Z,101040.91
2023-06-09T02:44:23.097Z,101042.84
2023-06-09T02:46:49.548Z,101040.09
2023-06-09T02:49:17.464Z,101045.53
2023-06-09T02:51:44.323Z,101052.66
2023-06-09T02:54:10.801Z,101054.97
2023-06-09T02:56:37.351Z,101044.28
2023-06-09T02:59:03.945Z,101045.41
2023-06-09T03:01:36.115Z,101048.88
2023-06-09T03:04:08.803Z,101051.66
2023-06-09T03:06:36.607Z,101049.25
2023-06-09T03:09:04.076Z,101056.75
2023-06-09T03:11:31.513Z,101051.22
2023-06-09T03:13:58.035Z,101058.03
2023-06-09T03:16:24.539Z,101056.56
2023-06-09T03:18:51.098Z,101058.19
2023-06-09T03:21:17.858Z,101063.75
2023-06-09T03:23:44.432Z,101075.66
2023-06-09T03:26:11.029Z,101068.53
2023-06-09T03:28:37.493Z,101076.47
2023-06-09T03:31:04.059Z,101076.50
2023-06-09T03:33:31.049Z,101078.13
2023-06-09T03:35:57.651Z,101078.09
2023-06-09T03:38:24.207Z,101079.66
2023-06-09T03:40:50.753Z,101078.50
2023-06-09T03:43:17.300Z,101078.09
2023-06-09T03:45:43.781Z,101074.16
2023-06-09T03:48:10.386Z,101069.31
2023-06-09T03:50:36.955Z,101066.13
2023-06-09T03:53:03.448Z,101067.69
2023-06-09T03:55:32.584Z,101069.59
2023-06-09T03:57:59.311Z,101074.38
2023-06-09T04:00:26.288Z,101064.78
2023-06-09T04:02:52.863Z,101075.09
2023-06-09T04:05:19.404Z,101073.09
2023-06-09T04:07:45.995Z,101066.41
2023-06-09T04:10:12.570Z,101069.19
2023-06-09T04:12:41.968Z,101070.06
2023-06-09T04:15:09.222Z,101073.19
2023-06-09T04:17:37.887Z,101065.25
2023-06-09T04:20:09.434Z,101067.63
2023-06-09T04:22:36.670Z,101070.75
2023-06-09T04:25:03.692Z,101069.97
2023-06-09T04:27:31.570Z,101059.66
2023-06-09T04:29:58.745Z,101062.84
2023-06-09T04:32:25.503Z,101063.75
2023-06-09T04:34:53.734Z,101067.66
2023-06-09T04:37:20.387Z,101060.47
2023-06-09T04:39:48.222Z,101062.00
2023-06-09T04:42:15.301Z,101066.00
2023-06-09T04:44:44.592Z,101068.44
2023-06-09T04:47:11.800Z,101063.69
2023-06-09T04:49:38.660Z,101074.06
2023-06-09T04:52:08.670Z,101070.47
2023-06-09T04:54:35.465Z,101074.44
2023-06-09T04:57:03.295Z,101077.22
2023-06-09T04:59:29.980Z,101074.91
2023-06-09T05:01:56.839Z,101074.56
2023-06-09T05:04:23.445Z,101077.72
2023-06-09T05:06:50.149Z,101078.59
2023-06-09T05:09:16.737Z,101079.03
2023-06-09T05:11:43.301Z,101086.59
2023-06-09T05:14:09.846Z,101081.03
2023-06-09T05:16:36.536Z,101097.38
2023-06-09T05:19:03.504Z,101098.19
2023-06-09T05:21:30.590Z,101106.91
2023-06-09T05:23:57.248Z,101105.00
2023-06-09T05:26:24.048Z,101116.09
2023-06-09T05:28:50.641Z,101120.47
2023-06-09T05:31:18.550Z,101124.44
2023-06-09T05:33:45.500Z,101130.38
2023-06-09T05:36:13.188Z,101128.41
2023-06-09T05:38:39.805Z,101134.31
2023-06-09T05:41:06.469Z,101133.16
2023-06-09T05:43:33.483Z,101144.25
2023-06-09T05:46:00.394Z,101143.06
2023-06-09T05:48:27.041Z,101146.66
2023-06-09T05:50:53.576Z,101144.25
2023-06-09T05:53:20.089Z,101143.06
2023-06-09T05:55:46.535Z,101142.66
2023-06-09T05:58:14.528Z,101140.28
2023-06-09T06:00:41.233Z,101143.88
2023-06-09T06:03:09.616Z,101143.03
2023-06-09T06:05:36.230Z,101137.84
2023-06-09T06:08:02.782Z,101135.91
2023-06-09T06:10:29.359Z,101136.25
2023-06-09T06:12:59.189Z,101146.50
2023-06-09T06:15:26.125Z,101140.22
2023-06-09T06:17:52.658Z,101148.41
2023-06-09T06:20:19.284Z,101138.91
2023-06-09T06:22:45.799Z,101144.84
2023-06-09T06:25:14.246Z,101139.59
2023-06-09T06:27:42.223Z,101139.56
2023-06-09T06:30:10.029Z,101139.16
2023-06-09T06:32:39.304Z,101136.38
2023-06-09T06:35:06.767Z,101135.25
2023-06-09T06:37:34.222Z,101136.09
2023-06-09T06:40:00.758Z,101140.31
2023-06-09T06:42:27.217Z,101136.72
2023-06-09T06:44:56.233Z,101143.03
2023-06-09T06:47:24.320Z,101147.78
2023-06-09T06:49:50.802Z,101151.75
2023-06-09T06:52:17.309Z,101152.94
2023-06-09T06:54:43.821Z,101156.47
2023-06-09T06:57:10.523Z,101164.38
2023-06-09T06:59:37.019Z,101160.78
2023-06-09T07:02:03.859Z,101175.84
2023-06-09T07:04:30.454Z,101169.13
2023-06-09T07:06:57.222Z,101174.22
2023-06-09T07:09:25.393Z,101168.63
2023-06-09T07:11:51.863Z,101166.28
2023-06-09T07:14:18.540Z,101174.88
2023-06-09T07:16:45.002Z,101187.09
2023-06-09T07:19:11.626Z,101192.50
2023-06-09T07:21:38.624Z,101190.34
2023-06-09T07:24:05.662Z,101192.66
2023-06-09T07:26:33.419Z,101197.66
2023-06-09T07:28:59.991Z,101196.94
2023-06-09T07:31:26.625Z,101202.00
2023-06-09T07:33:53.122Z,101202.53
2023-06-09T07:36:20.468Z,101207.16
2023-06-09T07:38:47.690Z,101206.47
2023-06-09T07:41:14.974Z,101219.53
2023-06-09T07:43:41.487Z,101222.53
2023-06-09T07:46:08.482Z,101223.56
2023-06-09T07:48:34.999Z,101223.47
2023-06-09T07:51:04.254Z,101217.06
2023-06-09T07:53:31.044Z,101222.81
2023-06-09T07:55:58.369Z,101221.16
2023-06-09T07:58:24.876Z,101224.69
2023-06-09T08:00:52.245Z,101218.19
2023-06-09T08:03:19.042Z,101218.59
2023-06-09T08:05:45.631Z,101217.00
2023-06-09T08:08:12.089Z,101220.81
2023-06-09T08:10:38.583Z,101214.13
2023-06-09T08:13:05.147Z,101210.09
2023-06-09T08:15:32.014Z,101207.84
2023-06-09T08:17:58.546Z,101204.31
2023-06-09T08:20:25.178Z,101209.97
2023-06-09T08:22:51.703Z,101203.94
2023-06-09T08:25:18.323Z,101190.44
2023-06-09T08:27:44.900Z,101209.84
2023-06-09T08:30:11.962Z,101202.56
2023-06-09T08:32:41.296Z,101199.88
2023-06-09T08:35:09.192Z,101192.59
2023-06-09T08:37:37.565Z,101201.66
2023-06-09T08:40:07.037Z,101201.44
2023-06-09T08:42:34.033Z,101198.56
2023-06-09T08:45:05.089Z,101190.81
2023-06-09T08:47:34.762Z,101182.47
2023-06-09T08:50:03.724Z,101195.00
2023-06-09T08:52:31.314Z,101186.06
2023-06-09T08:55:00.171Z,101183.69
2023-06-09T08:57:27.115Z,101181.75
2023-06-09T08:59:54.298Z,101188.44
2023-06-09T09:02:20.799Z,101175.50
2023-06-09T09:04:48.161Z,101184.94
2023-06-09T09:07:15.194Z,101181.28
2023-06-09T09:09:42.230Z,101185.91
2023-06-09T09:12:13.822Z,101184.22
2023-06-09T09:14:42.923Z,101186.25
2023-06-09T09:17:14.178Z,101195.75
2023-06-09T09:19:52.992Z,101195.72
2023-06-09T09:22:19.517Z,101194.25
2023-06-09T09:24:47.083Z,101203.06
2023-06-09T09:27:18.881Z,101197.16
2023-06-09T09:29:46.279Z,101191.72
2023-06-09T09:32:13.925Z,101197.34
2023-06-09T09:34:42.378Z,101207.03
2023-06-09T09:37:14.564Z,101203.13
2023-06-09T09:39:53.961Z,101199.72
2023-06-09T09:42:21.606Z,101199.19
2023-06-09T09:44:52.021Z,101197.00
2023-06-09T09:47:19.756Z,101201.66
2023-06-09T09:49:51.306Z,101183.78
2023-06-09T09:52:28.419Z,101183.56
2023-06-09T09:54:57.445Z,101188.66
2023-06-09T09:57:27.058Z,101194.78
2023-06-09T09:59:53.963Z,101186.72
2023-06-09T10:02:25.288Z,101183.75
2023-06-09T10:04:52.229Z,101175.69
2023-06-09T10:07:22.512Z,101171.59
2023-06-09T10:09:54.633Z,101169.09
2023-06-09T10:12:22.863Z,101180.75
2023-06-09T10:14:52.142Z,101155.16
2023-06-09T10:17:23.109Z,101165.09
2023-06-09T10:19:53.443Z,101170.00
2023-06-09T10:22:21.005Z,101157.72
2023-06-09T10:24:47.805Z,101160.59
2023-06-09T10:27:15.117Z,101156.84
2023-06-09T10:29:42.266Z,101161.13
2023-06-09T10:32:12.126Z,101156.50
2023-06-09T10:34:41.987Z,101158.22
2023-06-09T10:37:08.485Z,101164.13
2023-06-09T10:39:56.846Z,101146.75
2023-06-09T10:42:40.685Z,101146.94
2023-06-09T10:45:15.121Z,101133.34
2023-06-09T10:47:49.975Z,101147.63
2023-06-09T10:50:25.955Z,101129.41
2023-06-09T10:52:57.712Z,101125.63
2023-06-09T10:55:28.219Z,101128.44
2023-06-09T10:57:56.172Z,101132.66
2023-06-09T11:00:24.228Z,101133.59
2023-06-09T11:02:51.831Z,101133.44
2023-06-09T11:05:21.418Z,101123.34
2023-06-09T11:07:53.582Z,101124.31
2023-06-09T11:10:20.057Z,101109.34
2023-06-09T11:12:53.040Z,101114.00
2023-06-09T11:15:20.049Z,101114.34
2023-06-09T11:17:48.894Z,101110.81
2023-06-09T11:20:18.700Z,101115.28
2023-06-09T11:22:45.825Z,101122.63
2023-06-09T11:25:18.502Z,101118.75
2023-06-09T11:27:58.640Z,101119.91
2023-06-09T11:30:31.081Z,101127.81
2023-06-09T11:32:59.124Z,101117.50
2023-06-09T11:35:29.338Z,101110.31
2023-06-09T11:37:59.201Z,101107.66
2023-06-09T11:40:26.758Z,101109.81
2023-06-09T11:42:53.377Z,101107.91
2023-06-09T11:45:23.851Z,101105.44
2023-06-09T11:47:50.908Z,101105.91
2023-06-09T11:50:17.508Z,101098.16
2023-06-09T11:52:46.313Z,101096.50
2023-06-09T11:55:15.902Z,101099.41
2023-06-09T11:57:42.934Z,101092.69
2023-06-09T12:00:14.884Z,101097.59
2023-06-09T12:02:46.511Z,101090.97
2023-06-09T12:05:13.840Z,101092.22
2023-06-09T12:07:45.409Z,101085.00
2023-06-09T12:10:18.351Z,101089.53
2023-06-09T12:12:49.538Z,101079.94
2023-06-09T12:15:17.505Z,101081.66
2023-06-09T12:17:45.312Z,101082.00
2023-06-09T12:20:27.315Z,101078.84
2023-06-09T12:22:55.983Z,101073.22
2023-06-09T12:25:28.216Z,101065.34
2023-06-09T12:27:56.239Z,101062.47
2023-06-09T12:30:36.114Z,101071.84
2023-06-09T12:33:10.819Z,101065.16
2023-06-09T12:35:49.051Z,101069.84
2023-06-09T12:38:17.674Z,101066.25
2023-06-09T12:40:50.006Z,101067.13
2023-06-09T12:43:21.028Z,101065.53
2023-06-09T12:45:48.854Z,101067.31
2023-06-09T12:48:15.919Z,101057.06
2023-06-09T12:50:43.079Z,101059.41
2023-06-09T12:53:11.156Z,101054.22
2023-06-09T12:55:39.182Z,101047.72
2023-06-09T12:58:06.452Z,101055.25
2023-06-09T13:00:33.739Z,101056.59
2023-06-09T13:03:04.189Z,101056.41
2023-06-09T13:05:32.049Z,101051.06
2023-06-09T13:07:59.848Z,101037.25
2023-06-09T13:10:27.784Z,101038.34
2023-06-09T13:12:54.737Z,101033.94
2023-06-09T13:15:23.133Z,101023.09
2023-06-09T13:17:50.861Z,101023.84
2023-06-09T13:20:18.697Z,101030.75
2023-06-09T13:22:46.258Z,101032.25
2023-06-09T13:25:13.259Z,101034.06
2023-06-09T13:27:45.348Z,101042.41
2023-06-09T13:30:12.550Z,101036.78
2023-06-09T13:32:39.728Z,101036.69
2023-06-09T13:35:07.079Z,101022.41
2023-06-09T13:37:33.759Z,101036.13
2023-06-09T13:40:00.314Z,101036.66
2023-06-09T13:42:26.792Z,101036.91
2023-06-09T13:44:53.399Z,101033.00
2023-06-09T13:47:19.934Z,101033.75
2023-06-09T13:49:46.804Z,101027.38
2023-06-09T13:52:14.348Z,101022.97
2023-06-09T13:54:40.811Z,101031.16
2023-06-09T13:57:09.936Z,101011.59
2023-06-09T13:59:38.145Z,101021.97
2023-06-09T14:02:05.910Z,101031.97
2023-06-09T14:04:33.432Z,101013.88
2023-06-09T14:07:00.200Z,101029.34
2023-06-09T14:09:26.725Z,101026.47
2023-06-09T14:11:53.246Z,101004.88
2023-06-09T14:14:19.769Z,101021.19
2023-06-09T14:16:47.204Z,101013.09
2023-06-09T14:19:20.608Z,101003.16
2023-06-09T14:21:47.075Z,101015.44
2023-06-09T14:24:13.626Z,100999.81
2023-06-09T14:26:40.183Z,101004.88
2023-06-09T14:29:06.641Z,101014.28
2023-06-09T14:31:33.198Z,101003.41
2023-06-09T14:33:59.783Z,100998.81
2023-06-09T14:36:26.442Z,100999.03
2023-06-09T14:38:52.927Z,100997.13
2023-06-09T14:41:19.593Z,100997.34
2023-06-09T14:43:46.188Z,101006.25
2023-06-09T14:46:12.695Z,100991.75
2023-06-09T14:48:39.202Z,100999.63
2023-06-09T14:51:05.881Z,100988.34
2023-06-09T14:53:32.409Z,100997.38
2023-06-09T14:55:59.028Z,100997.22
2023-06-09T14:58:25.584Z,100992.72
2023-06-09T15:00:52.046Z,101001.16
2023-06-09T15:03:19.095Z,101000.69
2023-06-09T15:05:45.966Z,100989.69
2023-06-09T15:08:12.667Z,101000.34
2023-06-09T15:10:44.060Z,100994.19
2023-06-09T15:13:11.784Z,100993.59
2023-06-09T15:15:38.466Z,101005.06
2023-06-09T15:18:06.883Z,100989.13
2023-06-09T15:20:34.809Z,100987.41
2023-06-09T15:23:03.836Z,100998.75
2023-06-09T15:25:34.902Z,100996.53
2023-06-09T15:28:06.567Z,101005.63
2023-06-09T15:30:35.500Z,101002.25
2023-06-09T15:33:10.271Z,100998.03
2023-06-09T15:35:42.069Z,101005.56
2023-06-09T15:38:14.962Z,100998.13
2023-06-09T15:40:44.718Z,101006.09
2023-06-09T15:43:13.366Z,101004.88
2023-06-09T15:45:44.629Z,101017.22
2023-06-09T15:48:12.240Z,101012.06
2023-06-09T15:50:40.475Z,101015.78
2023-06-09T15:53:08.454Z,101016.81
2023-06-09T15:55:35.115Z,101005.78
2023-06-09T15:58:04.144Z,101009.72
2023-06-09T16:00:34.986Z,101010.81
2023-06-09T16:03:05.746Z,101013.88
2023-06-09T16:05:34.999Z,101001.91
2023-06-09T16:08:04.615Z,101004.81
2023-06-09T16:10:32.683Z,101003.91
2023-06-09T16:13:00.414Z,101007.84
2023-06-09T16:15:30.183Z,101009.75
2023-06-09T16:17:57.926Z,100999.28
2023-06-09T16:20:24.430Z,100994.03
2023-06-09T16:22:50.920Z,100988.88
2023-06-09T16:25:17.406Z,101000.00
2023-06-09T16:27:44.912Z,101001.56
2023-06-09T16:30:11.985Z,101005.47
2023-06-09T16:32:40.356Z,101003.91
2023-06-09T16:35:10.033Z,101010.16
2023-06-09T16:37:36.734Z,100996.53
2023-06-09T16:40:05.844Z,100984.59
2023-06-09T16:42:33.116Z,101000.53
2023-06-09T16:44:59.613Z,101011.19
2023-06-09T16:47:26.172Z,101015.84
2023-06-09T16:49:52.744Z,101013.50
2023-06-09T16:52:20.011Z,101011.66
2023-06-09T16:54:46.505Z,101019.53
2023-06-09T16:57:13.287Z,101023.31
2023-06-09T16:59:40.776Z,101017.63
2023-06-09T17:02:07.617Z,101056.16
2023-06-09T17:04:34.294Z,101056.94
2023-06-09T17:07:00.751Z,101065.97
2023-06-09T17:09:27.255Z,101063.59
2023-06-09T17:11:53.768Z,101074.91
2023-06-09T17:14:20.901Z,101068.22
2023-06-09T17:16:47.569Z,101081.28
2023-06-09T17:19:14.220Z,101077.63
2023-06-09T17:21:40.674Z,101073.25
2023-06-09T17:24:07.761Z,101068.16
2023-06-09T17:26:34.377Z,101079.50
2023-06-09T17:29:01.324Z,101086.41
2023-06-09T17:31:27.954Z,101083.69
2023-06-09T17:33:54.633Z,101083.44
2023-06-09T17:36:22.046Z,101079.97
2023-06-09T17:38:50.667Z,101077.38
2023-06-09T17:41:19.571Z,101078.41
2023-06-09T17:43:46.112Z,101084.75
2023-06-09T17:46:13.128Z,101068.72
2023-06-09T17:48:44.609Z,101083.78
2023-06-09T17:51:13.022Z,101087.00
2023-06-09T17:53:42.214Z,101090.75
2023-06-09T17:56:09.372Z,101084.06
2023-06-09T17:58:35.993Z,101091.53
2023-06-09T18:01:02.603Z,101083.09
2023-06-09T18:03:29.216Z,101099.34
2023-06-09T18:05:55.897Z,101100.78
2023-06-09T18:08:23.058Z,101104.53
2023-06-09T18:10:49.720Z,101104.16
2023-06-09T18:13:17.198Z,101104.16
2023-06-09T18:15:44.748Z,101109.50
2023-06-09T18:18:11.572Z,101119.84
2023-06-09T18:20:38.226Z,101119.50
2023-06-09T18:23:04.769Z,101117.22
2023-06-09T18:25:32.863Z,101122.53
2023-06-09T18:28:01.839Z,101112.47
2023-06-09T18:30:29.428Z,101121.38
2023-06-09T18:32:55.997Z,101109.56
2023-06-09T18:35:22.511Z,101107.19
2023-06-09T18:37:49.011Z,101106.56
2023-06-09T18:40:15.634Z,101115.81
2023-06-09T18:42:42.161Z,101104.41
2023-06-09T18:45:09.678Z,101110.66
2023-06-09T18:47:36.855Z,101113.91
2023-06-09T18:50:03.730Z,101110.59
2023-06-09T18:52:31.200Z,101105.94
2023-06-09T18:54:57.742Z,101110.66
2023-06-09T18:57:24.445Z,101113.81
2023-06-09T18:59:51.022Z,101113.56
2023-06-09T19:02:17.777Z,101119.75
2023-06-09T19:04:45.853Z,101123.00
2023-06-09T19:07:12.857Z,101118.47
2023-06-09T19:09:39.489Z,101127.47
2023-06-09T19:12:06.906Z,101119.28
2023-06-09T19:14:33.802Z,101123.38
2023-06-09T19:17:00.407Z,101127.31
2023-06-09T19:19:26.954Z,101128.06
2023-06-09T19:21:55.181Z,101115.56
2023-06-09T19:24:21.926Z,101117.13
2023-06-09T19:26:48.578Z,101110.09
2023-06-09T19:29:15.386Z,101114.44
2023-06-09T19:31:42.014Z,101122.34
2023-06-09T19:34:08.556Z,101124.28
2023-06-09T19:36:35.153Z,101115.59
2023-06-09T19:39:02.654Z,101126.31
2023-06-09T19:41:29.255Z,101129.50
2023-06-09T19:43:55.767Z,101133.06
2023-06-09T19:46:22.364Z,101139.84
2023-06-09T19:48:48.894Z,101130.75
2023-06-09T19:51:16.542Z,101141.47
2023-06-09T19:53:43.082Z,101148.22
2023-06-09T19:56:12.630Z,101149.00
2023-06-09T19:58:39.690Z,101142.63
2023-06-09T20:01:06.321Z,101143.84
2023-06-09T20:03:33.066Z,101134.34
2023-06-09T20:05:59.636Z,101129.19
2023-06-09T20:08:26.486Z,101151.78
2023-06-09T20:10:52.988Z,101143.47
2023-06-09T20:13:19.551Z,101151.81
2023-06-09T20:15:46.197Z,101139.47
2023-06-09T20:18:13.498Z,101133.88
2023-06-09T20:20:42.808Z,101143.44
2023-06-09T20:23:11.491Z,101137.41
2023-06-09T20:25:38.840Z,101159.31
2023-06-09T20:28:05.539Z,101149.69
2023-06-09T20:30:32.080Z,101150.44
2023-06-09T20:32:58.628Z,101148.06
2023-06-09T20:35:25.974Z,101152.72
2023-06-09T20:37:53.440Z,101140.69
2023-06-09T20:40:20.200Z,101138.72
2023-06-09T20:42:47.224Z,101148.72
2023-06-09T20:45:17.379Z,101142.25
2023-06-09T20:47:45.046Z,101130.75
2023-06-09T20:50:11.689Z,101141.03
2023-06-09T20:52:38.248Z,101148.53
2023-06-09T20:55:05.348Z,101153.28
2023-06-09T20:57:31.974Z,101149.22
2023-06-09T20:59:58.741Z,101146.00
2023-06-09T21:02:26.887Z,101152.41
2023-06-09T21:04:55.204Z,101142.09
2023-06-09T21:07:23.016Z,101147.25
2023-06-09T21:09:49.523Z,101146.75
2023-06-09T21:12:16.425Z,101138.03
2023-06-09T21:14:43.060Z,101147.66
2023-06-09T21:17:10.341Z,101138.44
2023-06-09T21:19:42.885Z,101131.44
2023-06-09T21:22:09.364Z,101125.41
2023-06-09T21:24:35.818Z,101137.38
2023-06-09T21:27:02.417Z,101150.56
2023-06-09T21:29:28.917Z,101143.38
2023-06-09T21:31:55.596Z,101139.38
2023-06-09T21:34:22.117Z,101139.72
2023-06-09T21:36:48.619Z,101139.97
2023-06-09T21:39:15.100Z,101147.56
2023-06-09T21:41:41.882Z,101143.19
2023-06-09T21:44:08.410Z,101145.25
2023-06-09T21:46:34.906Z,101150.44
2023-06-09T21:49:01.454Z,101148.09
2023-06-09T21:51:27.943Z,101143.56
2023-06-09T21:53:54.487Z,101143.94
2023-06-09T21:56:21.026Z,101142.78
2023-06-09T21:58:47.587Z,101141.19
2023-06-09T22:01:14.173Z,101140.41
2023-06-09T22:03:40.779Z,101138.72
2023-06-09T22:06:07.548Z,101140.75
2023-06-09T22:08:35.894Z,101133.63
2023-06-09T22:11:03.977Z,101129.41
2023-06-09T22:13:30.642Z,101131.31
2023-06-09T22:15:57.113Z,101128.97
2023-06-09T22:18:23.639Z,101132.91
2023-06-09T22:20:50.165Z,101129.34
2023-06-09T22:23:16.708Z,101126.41
2023-06-09T22:25:43.367Z,101135.47
2023-06-09T22:28:09.888Z,101132.38
2023-06-09T22:30:36.414Z,101130.97
2023-06-09T22:33:03.252Z,101135.75
2023-06-09T22:35:29.876Z,101125.09
2023-06-09T22:37:56.564Z,101114.38
2023-06-09T22:40:23.142Z,101113.19
2023-06-09T22:42:50.981Z,101109.31
2023-06-09T22:45:18.217Z,101116.53
2023-06-09T22:47:46.328Z,101116.53
2023-06-09T22:50:14.454Z,101112.84
2023-06-09T22:52:44.351Z,101112.88
2023-06-09T22:55:12.552Z,101107.75
2023-06-09T22:57:40.038Z,101110.78
2023-06-09T23:00:08.806Z,101107.81
2023-06-09T23:02:36.143Z,101115.72
2023-06-09T23:05:06.366Z,101108.00
2023-06-09T23:07:33.054Z,101104.81
2023-06-09T23:09:59.547Z,101104.84
2023-06-09T23:12:26.239Z,101112.09
2023-06-09T23:14:54.036Z,101108.53
2023-06-09T23:17:20.657Z,101095.94
2023-06-09T23:19:47.248Z,101092.19
2023-06-09T23:22:14.304Z,101100.59
2023-06-09T23:24:45.922Z,101101.25
2023-06-09T23:27:13.007Z,101095.25
2023-06-09T23:29:39.513Z,101100.81
2023-06-09T23:32:12.667Z,101097.69
2023-06-09T23:34:42.657Z,101099.31
2023-06-09T23:37:13.590Z,101104.06
2023-06-09T23:39:40.803Z,101103.81
2023-06-09T23:42:08.810Z,101102.50
2023-06-09T23:44:35.312Z,101096.31
2023-06-09T23:47:02.757Z,101101.09
2023-06-09T23:49:29.297Z,101101.91
2023-06-09T23:51:55.963Z,101098.84
2023-06-09T23:54:23.487Z,101108.44
2023-06-09T23:56:50.010Z,101111.03
2023-06-09T23:59:16.886Z,101113.81
